sensor_id;sensor_type;location;lat;lon;timestamp;P1;durP1;ratioP1;P2;durP2;ratioP2
35777;SDS011;21899;42.662;23.316;2024-02-04T00:00:03;3.75;;;2.63;;
35777;SDS011;21899;42.662;23.316;2024-02-04T00:02:30;4.60;;;2.35;;
35777;SDS011;21899;42.662;23.316;2024-02-04T00:04:56;4.47;;;2.30;;
35777;SDS011;21899;42.662;23.316;2024-02-04T00:07:21;4.18;;;2.10;;
35777;SDS011;21899;42.662;23.316;2024-02-04T00:09:47;5.20;;;2.53;;
35777;SDS011;21899;42.662;23.316;2024-02-04T00:12:12;4.78;;;2.75;;
35777;SDS011;21899;42.662;23.316;2024-02-04T00:14:38;5.38;;;2.63;;
35777;SDS011;21899;42.662;23.316;2024-02-04T00:17:03;5.15;;;2.83;;
35777;SDS011;21899;42.662;23.316;2024-02-04T00:19:29;4.75;;;2.75;;
35777;SDS011;21899;42.662;23.316;2024-02-04T00:21:54;4.03;;;1.85;;
35777;SDS011;21899;42.662;23.316;2024-02-04T00:24:20;5.28;;;3.22;;
35777;SDS011;21899;42.662;23.316;2024-02-04T00:26:45;5.43;;;2.53;;
35777;SDS011;21899;42.662;23.316;2024-02-04T00:29:11;4.00;;;2.72;;
35777;SDS011;21899;42.662;23.316;2024-02-04T00:31:36;5.78;;;3.25;;
35777;SDS011;21899;42.662;23.316;2024-02-04T00:34:02;6.65;;;3.13;;
35777;SDS011;21899;42.662;23.316;2024-02-04T00:36:28;4.35;;;2.40;;
35777;SDS011;21899;42.662;23.316;2024-02-04T00:38:53;6.28;;;3.22;;
35777;SDS011;21899;42.662;23.316;2024-02-04T00:41:19;4.45;;;2.58;;
35777;SDS011;21899;42.662;23.316;2024-02-04T00:43:44;4.13;;;2.60;;
35777;SDS011;21899;42.662;23.316;2024-02-04T00:46:10;6.10;;;3.38;;
35777;SDS011;21899;42.662;23.316;2024-02-04T00:48:36;3.95;;;2.22;;
35777;SDS011;21899;42.662;23.316;2024-02-04T00:51:02;4.20;;;2.65;;
35777;SDS011;21899;42.662;23.316;2024-02-04T00:53:28;4.68;;;2.67;;
35777;SDS011;21899;42.662;23.316;2024-02-04T00:55:59;5.40;;;3.17;;
35777;SDS011;21899;42.662;23.316;2024-02-04T00:58:25;4.10;;;3.05;;
35777;SDS011;21899;42.662;23.316;2024-02-04T01:00:51;4.85;;;3.28;;
35777;SDS011;21899;42.662;23.316;2024-02-04T01:03:17;5.97;;;3.60;;
35777;SDS011;21899;42.662;23.316;2024-02-04T01:05:43;5.55;;;2.38;;
35777;SDS011;21899;42.662;23.316;2024-02-04T01:08:08;4.40;;;2.97;;
35777;SDS011;21899;42.662;23.316;2024-02-04T01:10:33;4.05;;;2.60;;
35777;SDS011;21899;42.662;23.316;2024-02-04T01:12:59;5.65;;;2.47;;
35777;SDS011;21899;42.662;23.316;2024-02-04T01:15:24;3.97;;;2.85;;
35777;SDS011;21899;42.662;23.316;2024-02-04T01:17:51;3.83;;;2.25;;
35777;SDS011;21899;42.662;23.316;2024-02-04T01:20:17;4.43;;;2.53;;
35777;SDS011;21899;42.662;23.316;2024-02-04T01:22:43;6.55;;;2.60;;
35777;SDS011;21899;42.662;23.316;2024-02-04T01:25:09;7.38;;;2.50;;
35777;SDS011;21899;42.662;23.316;2024-02-04T01:27:34;3.47;;;2.47;;
35777;SDS011;21899;42.662;23.316;2024-02-04T01:30:00;5.10;;;2.25;;
35777;SDS011;21899;42.662;23.316;2024-02-04T01:32:25;4.53;;;2.28;;
35777;SDS011;21899;42.662;23.316;2024-02-04T01:34:51;4.53;;;1.90;;
35777;SDS011;21899;42.662;23.316;2024-02-04T01:37:16;4.20;;;2.28;;
35777;SDS011;21899;42.662;23.316;2024-02-04T01:39:42;3.70;;;2.08;;
35777;SDS011;21899;42.662;23.316;2024-02-04T01:42:07;3.25;;;2.00;;
35777;SDS011;21899;42.662;23.316;2024-02-04T01:44:33;5.93;;;2.83;;
35777;SDS011;21899;42.662;23.316;2024-02-04T01:46:58;4.47;;;1.90;;
35777;SDS011;21899;42.662;23.316;2024-02-04T01:49:24;2.58;;;2.00;;
35777;SDS011;21899;42.662;23.316;2024-02-04T01:51:51;4.43;;;2.13;;
35777;SDS011;21899;42.662;23.316;2024-02-04T01:54:17;4.90;;;2.17;;
35777;SDS011;21899;42.662;23.316;2024-02-04T01:56:43;4.45;;;2.40;;
35777;SDS011;21899;42.662;23.316;2024-02-04T01:59:12;4.30;;;2.50;;
35777;SDS011;21899;42.662;23.316;2024-02-04T02:01:38;4.18;;;2.22;;
35777;SDS011;21899;42.662;23.316;2024-02-04T02:04:04;5.00;;;2.10;;
35777;SDS011;21899;42.662;23.316;2024-02-04T02:06:30;3.55;;;2.45;;
35777;SDS011;21899;42.662;23.316;2024-02-04T02:08:58;5.72;;;2.80;;
35777;SDS011;21899;42.662;23.316;2024-02-04T02:11:45;4.93;;;2.50;;
35777;SDS011;21899;42.662;23.316;2024-02-04T02:14:13;2.10;;;1.35;;
35777;SDS011;21899;42.662;23.316;2024-02-04T02:16:41;4.40;;;2.30;;
35777;SDS011;21899;42.662;23.316;2024-02-04T02:25:00;2.95;;;2.42;;
35777;SDS011;21899;42.662;23.316;2024-02-04T02:27:29;3.85;;;2.00;;
35777;SDS011;21899;42.662;23.316;2024-02-04T02:29:55;3.90;;;2.13;;
35777;SDS011;21899;42.662;23.316;2024-02-04T02:32:20;4.15;;;2.80;;
35777;SDS011;21899;42.662;23.316;2024-02-04T02:34:46;3.47;;;2.17;;
35777;SDS011;21899;42.662;23.316;2024-02-04T02:37:23;5.28;;;2.65;;
35777;SDS011;21899;42.662;23.316;2024-02-04T02:40:05;3.75;;;2.20;;
35777;SDS011;21899;42.662;23.316;2024-02-04T02:42:48;4.15;;;2.55;;
35777;SDS011;21899;42.662;23.316;2024-02-04T02:45:15;3.40;;;2.08;;
35777;SDS011;21899;42.662;23.316;2024-02-04T02:47:42;2.92;;;2.00;;
35777;SDS011;21899;42.662;23.316;2024-02-04T02:50:09;5.50;;;2.38;;
35777;SDS011;21899;42.662;23.316;2024-02-04T02:52:35;4.63;;;1.58;;
35777;SDS011;21899;42.662;23.316;2024-02-04T02:55:00;4.82;;;2.20;;
35777;SDS011;21899;42.662;23.316;2024-02-04T02:57:26;3.22;;;2.08;;
35777;SDS011;21899;42.662;23.316;2024-02-04T02:59:51;5.03;;;1.90;;
35777;SDS011;21899;42.662;23.316;2024-02-04T03:02:17;3.10;;;1.98;;
35777;SDS011;21899;42.662;23.316;2024-02-04T03:04:42;3.28;;;1.75;;
35777;SDS011;21899;42.662;23.316;2024-02-04T03:07:08;3.15;;;2.75;;
35777;SDS011;21899;42.662;23.316;2024-02-04T03:09:33;4.45;;;1.95;;
35777;SDS011;21899;42.662;23.316;2024-02-04T03:12:01;2.92;;;1.77;;
35777;SDS011;21899;42.662;23.316;2024-02-04T03:14:26;5.32;;;1.73;;
35777;SDS011;21899;42.662;23.316;2024-02-04T03:16:51;4.10;;;1.90;;
35777;SDS011;21899;42.662;23.316;2024-02-04T03:19:17;2.88;;;1.58;;
35777;SDS011;21899;42.662;23.316;2024-02-04T03:21:42;2.85;;;1.60;;
35777;SDS011;21899;42.662;23.316;2024-02-04T03:24:08;4.80;;;2.10;;
35777;SDS011;21899;42.662;23.316;2024-02-04T03:26:33;2.70;;;1.77;;
35777;SDS011;21899;42.662;23.316;2024-02-04T03:28:59;3.50;;;1.80;;
35777;SDS011;21899;42.662;23.316;2024-02-04T03:31:24;2.38;;;1.60;;
35777;SDS011;21899;42.662;23.316;2024-02-04T03:33:50;1.95;;;1.50;;
35777;SDS011;21899;42.662;23.316;2024-02-04T03:36:18;2.72;;;1.70;;
35777;SDS011;21899;42.662;23.316;2024-02-04T03:38:45;2.50;;;1.45;;
35777;SDS011;21899;42.662;23.316;2024-02-04T03:41:10;2.65;;;1.65;;
35777;SDS011;21899;42.662;23.316;2024-02-04T03:43:36;2.33;;;1.63;;
35777;SDS011;21899;42.662;23.316;2024-02-04T03:46:02;2.47;;;1.63;;
35777;SDS011;21899;42.662;23.316;2024-02-04T03:48:28;4.45;;;2.25;;
35777;SDS011;21899;42.662;23.316;2024-02-04T03:50:53;2.92;;;1.42;;
35777;SDS011;21899;42.662;23.316;2024-02-04T03:53:18;2.08;;;1.38;;
35777;SDS011;21899;42.662;23.316;2024-02-04T03:55:46;2.85;;;1.90;;
35777;SDS011;21899;42.662;23.316;2024-02-04T03:58:12;3.28;;;2.00;;
35777;SDS011;21899;42.662;23.316;2024-02-04T04:00:38;2.20;;;1.58;;
35777;SDS011;21899;42.662;23.316;2024-02-04T04:03:03;2.85;;;1.85;;
35777;SDS011;21899;42.662;23.316;2024-02-04T04:05:29;3.08;;;1.63;;
35777;SDS011;21899;42.662;23.316;2024-02-04T04:07:54;4.50;;;1.58;;
35777;SDS011;21899;42.662;23.316;2024-02-04T04:10:20;3.40;;;2.10;;
35777;SDS011;21899;42.662;23.316;2024-02-04T04:12:45;3.75;;;1.52;;
35777;SDS011;21899;42.662;23.316;2024-02-04T04:15:11;3.72;;;1.60;;
35777;SDS011;21899;42.662;23.316;2024-02-04T04:17:36;9.23;;;2.17;;
35777;SDS011;21899;42.662;23.316;2024-02-04T04:20:03;2.83;;;1.63;;
35777;SDS011;21899;42.662;23.316;2024-02-04T04:22:29;3.60;;;1.88;;
35777;SDS011;21899;42.662;23.316;2024-02-04T04:24:55;1.55;;;1.27;;
35777;SDS011;21899;42.662;23.316;2024-02-04T04:27:20;2.63;;;1.85;;
35777;SDS011;21899;42.662;23.316;2024-02-04T04:29:46;2.50;;;1.88;;
35777;SDS011;21899;42.662;23.316;2024-02-04T04:32:11;4.15;;;1.92;;
35777;SDS011;21899;42.662;23.316;2024-02-04T04:34:37;4.07;;;1.98;;
35777;SDS011;21899;42.662;23.316;2024-02-04T04:37:02;2.72;;;1.85;;
35777;SDS011;21899;42.662;23.316;2024-02-04T04:39:28;2.60;;;2.15;;
35777;SDS011;21899;42.662;23.316;2024-02-04T04:41:53;3.03;;;1.40;;
35777;SDS011;21899;42.662;23.316;2024-02-04T04:44:19;1.98;;;1.55;;
35777;SDS011;21899;42.662;23.316;2024-02-04T04:46:44;3.08;;;1.88;;
35777;SDS011;21899;42.662;23.316;2024-02-04T04:49:10;2.25;;;1.38;;
35777;SDS011;21899;42.662;23.316;2024-02-04T04:51:35;2.60;;;1.40;;
35777;SDS011;21899;42.662;23.316;2024-02-04T04:54:01;2.22;;;1.65;;
35777;SDS011;21899;42.662;23.316;2024-02-04T04:56:26;2.83;;;2.15;;
35777;SDS011;21899;42.662;23.316;2024-02-04T04:58:52;3.10;;;1.75;;
35777;SDS011;21899;42.662;23.316;2024-02-04T05:01:17;1.80;;;1.40;;
35777;SDS011;21899;42.662;23.316;2024-02-04T05:03:43;2.22;;;1.70;;
35777;SDS011;21899;42.662;23.316;2024-02-04T05:06:09;2.40;;;1.60;;
35777;SDS011;21899;42.662;23.316;2024-02-04T05:08:34;2.33;;;2.00;;
35777;SDS011;21899;42.662;23.316;2024-02-04T05:11:00;2.63;;;1.60;;
35777;SDS011;21899;42.662;23.316;2024-02-04T05:13:25;5.20;;;1.70;;
35777;SDS011;21899;42.662;23.316;2024-02-04T05:15:51;4.43;;;2.13;;
35777;SDS011;21899;42.662;23.316;2024-02-04T05:18:16;2.53;;;1.95;;
35777;SDS011;21899;42.662;23.316;2024-02-04T05:20:42;5.20;;;1.90;;
35777;SDS011;21899;42.662;23.316;2024-02-04T05:23:08;4.00;;;1.90;;
35777;SDS011;21899;42.662;23.316;2024-02-04T05:25:34;3.50;;;1.60;;
35777;SDS011;21899;42.662;23.316;2024-02-04T05:27:59;2.50;;;1.80;;
35777;SDS011;21899;42.662;23.316;2024-02-04T05:30:25;2.88;;;1.70;;
35777;SDS011;21899;42.662;23.316;2024-02-04T05:32:50;2.50;;;1.70;;
35777;SDS011;21899;42.662;23.316;2024-02-04T05:35:16;3.28;;;2.00;;
35777;SDS011;21899;42.662;23.316;2024-02-04T05:37:41;3.38;;;1.60;;
35777;SDS011;21899;42.662;23.316;2024-02-04T05:40:07;5.82;;;1.60;;
35777;SDS011;21899;42.662;23.316;2024-02-04T05:42:33;3.38;;;1.98;;
35777;SDS011;21899;42.662;23.316;2024-02-04T05:44:58;4.78;;;1.58;;
35777;SDS011;21899;42.662;23.316;2024-02-04T05:47:24;2.67;;;1.83;;
35777;SDS011;21899;42.662;23.316;2024-02-04T05:49:49;2.83;;;1.92;;
35777;SDS011;21899;42.662;23.316;2024-02-04T05:52:15;2.95;;;1.98;;
35777;SDS011;21899;42.662;23.316;2024-02-04T05:54:40;3.38;;;1.77;;
35777;SDS011;21899;42.662;23.316;2024-02-04T05:57:06;3.55;;;1.60;;
35777;SDS011;21899;42.662;23.316;2024-02-04T05:59:32;3.55;;;1.80;;
35777;SDS011;21899;42.662;23.316;2024-02-04T06:01:58;4.68;;;1.70;;
35777;SDS011;21899;42.662;23.316;2024-02-04T06:04:23;2.53;;;1.67;;
35777;SDS011;21899;42.662;23.316;2024-02-04T06:06:49;5.03;;;2.85;;
35777;SDS011;21899;42.662;23.316;2024-02-04T06:09:14;2.35;;;1.63;;
35777;SDS011;21899;42.662;23.316;2024-02-04T06:11:40;3.75;;;1.70;;
35777;SDS011;21899;42.662;23.316;2024-02-04T06:14:05;4.05;;;2.10;;
35777;SDS011;21899;42.662;23.316;2024-02-04T06:16:31;4.75;;;2.17;;
35777;SDS011;21899;42.662;23.316;2024-02-04T06:18:59;3.47;;;1.92;;
35777;SDS011;21899;42.662;23.316;2024-02-04T06:21:25;3.97;;;2.15;;
35777;SDS011;21899;42.662;23.316;2024-02-04T06:23:50;2.45;;;1.80;;
35777;SDS011;21899;42.662;23.316;2024-02-04T06:26:15;2.05;;;1.63;;
35777;SDS011;21899;42.662;23.316;2024-02-04T06:28:41;3.25;;;2.00;;
35777;SDS011;21899;42.662;23.316;2024-02-04T06:31:11;6.18;;;1.95;;
35777;SDS011;21899;42.662;23.316;2024-02-04T06:33:36;2.85;;;2.03;;
35777;SDS011;21899;42.662;23.316;2024-02-04T06:36:02;8.10;;;1.80;;
35777;SDS011;21899;42.662;23.316;2024-02-04T06:38:28;3.00;;;1.70;;
35777;SDS011;21899;42.662;23.316;2024-02-04T06:40:53;4.68;;;1.65;;
35777;SDS011;21899;42.662;23.316;2024-02-04T06:43:19;6.57;;;2.00;;
35777;SDS011;21899;42.662;23.316;2024-02-04T06:45:44;4.93;;;1.75;;
35777;SDS011;21899;42.662;23.316;2024-02-04T06:48:10;2.75;;;1.63;;
35777;SDS011;21899;42.662;23.316;2024-02-04T06:50:35;3.97;;;1.63;;
35777;SDS011;21899;42.662;23.316;2024-02-04T06:53:02;2.35;;;1.83;;
35777;SDS011;21899;42.662;23.316;2024-02-04T06:55:27;9.77;;;3.33;;
35777;SDS011;21899;42.662;23.316;2024-02-04T06:57:53;3.33;;;1.88;;
35777;SDS011;21899;42.662;23.316;2024-02-04T07:00:18;2.88;;;1.80;;
35777;SDS011;21899;42.662;23.316;2024-02-04T07:02:46;3.05;;;2.05;;
35777;SDS011;21899;42.662;23.316;2024-02-04T07:05:11;3.20;;;1.67;;
35777;SDS011;21899;42.662;23.316;2024-02-04T07:07:37;2.72;;;1.60;;
35777;SDS011;21899;42.662;23.316;2024-02-04T07:10:03;3.38;;;1.48;;
35777;SDS011;21899;42.662;23.316;2024-02-04T07:12:28;3.95;;;1.55;;
35777;SDS011;21899;42.662;23.316;2024-02-04T07:14:54;2.78;;;1.80;;
35777;SDS011;21899;42.662;23.316;2024-02-04T07:17:19;3.22;;;1.80;;
35777;SDS011;21899;42.662;23.316;2024-02-04T07:19:45;2.20;;;1.60;;
35777;SDS011;21899;42.662;23.316;2024-02-04T07:22:10;2.55;;;1.80;;
35777;SDS011;21899;42.662;23.316;2024-02-04T07:24:36;3.83;;;1.85;;
35777;SDS011;21899;42.662;23.316;2024-02-04T07:27:02;4.22;;;2.22;;
35777;SDS011;21899;42.662;23.316;2024-02-04T07:29:27;2.38;;;1.65;;
35777;SDS011;21899;42.662;23.316;2024-02-04T07:31:53;4.03;;;2.00;;
35777;SDS011;21899;42.662;23.316;2024-02-04T07:34:18;4.57;;;1.92;;
35777;SDS011;21899;42.662;23.316;2024-02-04T07:36:43;2.90;;;1.73;;
35777;SDS011;21899;42.662;23.316;2024-02-04T07:39:10;3.10;;;1.80;;
35777;SDS011;21899;42.662;23.316;2024-02-04T07:41:35;3.20;;;1.40;;
35777;SDS011;21899;42.662;23.316;2024-02-04T07:44:01;2.85;;;1.75;;
35777;SDS011;21899;42.662;23.316;2024-02-04T07:46:26;3.30;;;1.85;;
35777;SDS011;21899;42.662;23.316;2024-02-04T07:48:52;3.42;;;1.92;;
35777;SDS011;21899;42.662;23.316;2024-02-04T07:51:17;4.43;;;1.85;;
35777;SDS011;21899;42.662;23.316;2024-02-04T07:53:43;3.72;;;1.85;;
35777;SDS011;21899;42.662;23.316;2024-02-04T07:56:09;2.80;;;2.40;;
35777;SDS011;21899;42.662;23.316;2024-02-04T07:58:35;3.25;;;1.95;;
35777;SDS011;21899;42.662;23.316;2024-02-04T08:01:01;4.55;;;1.50;;
35777;SDS011;21899;42.662;23.316;2024-02-04T08:03:26;4.22;;;1.85;;
35777;SDS011;21899;42.662;23.316;2024-02-04T08:05:52;2.75;;;1.48;;
35777;SDS011;21899;42.662;23.316;2024-02-04T08:08:17;3.47;;;1.38;;
35777;SDS011;21899;42.662;23.316;2024-02-04T08:10:44;4.30;;;1.85;;
35777;SDS011;21899;42.662;23.316;2024-02-04T08:13:09;2.13;;;1.63;;
35777;SDS011;21899;42.662;23.316;2024-02-04T08:15:35;3.05;;;1.45;;
35777;SDS011;21899;42.662;23.316;2024-02-04T08:18:00;3.45;;;1.35;;
35777;SDS011;21899;42.662;23.316;2024-02-04T08:20:26;8.55;;;1.70;;
35777;SDS011;21899;42.662;23.316;2024-02-04T08:22:51;3.78;;;2.08;;
35777;SDS011;21899;42.662;23.316;2024-02-04T08:25:17;2.90;;;1.45;;
35777;SDS011;21899;42.662;23.316;2024-02-04T08:27:42;4.38;;;1.30;;
35777;SDS011;21899;42.662;23.316;2024-02-04T08:30:08;3.30;;;1.52;;
35777;SDS011;21899;42.662;23.316;2024-02-04T08:35:22;2.20;;;1.13;;
35777;SDS011;21899;42.662;23.316;2024-02-04T08:37:47;2.03;;;1.02;;
35777;SDS011;21899;42.662;23.316;2024-02-04T08:40:13;2.67;;;1.00;;
35777;SDS011;21899;42.662;23.316;2024-02-04T08:42:38;2.53;;;1.17;;
35777;SDS011;21899;42.662;23.316;2024-02-04T08:45:04;2.10;;;0.90;;
35777;SDS011;21899;42.662;23.316;2024-02-04T08:47:30;4.80;;;1.00;;
35777;SDS011;21899;42.662;23.316;2024-02-04T08:49:55;2.60;;;1.30;;
35777;SDS011;21899;42.662;23.316;2024-02-04T08:52:22;3.15;;;0.90;;
35777;SDS011;21899;42.662;23.316;2024-02-04T08:54:48;4.32;;;0.70;;
35777;SDS011;21899;42.662;23.316;2024-02-04T08:57:13;3.90;;;0.90;;
35777;SDS011;21899;42.662;23.316;2024-02-04T08:59:39;4.32;;;0.88;;
35777;SDS011;21899;42.662;23.316;2024-02-04T09:02:05;1.83;;;0.90;;
35777;SDS011;21899;42.662;23.316;2024-02-04T09:04:30;2.45;;;0.60;;
35777;SDS011;21899;42.662;23.316;2024-02-04T09:06:56;2.63;;;0.90;;
35777;SDS011;21899;42.662;23.316;2024-02-04T09:09:21;2.17;;;0.73;;
35777;SDS011;21899;42.662;23.316;2024-02-04T09:11:47;1.77;;;0.85;;
35777;SDS011;21899;42.662;23.316;2024-02-04T09:14:12;2.45;;;1.35;;
35777;SDS011;21899;42.662;23.316;2024-02-04T09:16:38;2.42;;;1.20;;
35777;SDS011;21899;42.662;23.316;2024-02-04T09:19:04;1.92;;;1.00;;
35777;SDS011;21899;42.662;23.316;2024-02-04T09:21:30;2.10;;;1.00;;
35777;SDS011;21899;42.662;23.316;2024-02-04T09:23:55;1.85;;;0.93;;
35777;SDS011;21899;42.662;23.316;2024-02-04T09:26:22;1.92;;;0.73;;
35777;SDS011;21899;42.662;23.316;2024-02-04T09:28:48;1.35;;;0.68;;
35777;SDS011;21899;42.662;23.316;2024-02-04T09:31:13;2.67;;;0.93;;
35777;SDS011;21899;42.662;23.316;2024-02-04T09:33:39;4.35;;;1.58;;
35777;SDS011;21899;42.662;23.316;2024-02-04T09:36:05;3.05;;;1.02;;
35777;SDS011;21899;42.662;23.316;2024-02-04T09:38:31;3.38;;;1.23;;
35777;SDS011;21899;42.662;23.316;2024-02-04T09:40:56;2.42;;;1.15;;
35777;SDS011;21899;42.662;23.316;2024-02-04T09:43:22;2.88;;;1.73;;
35777;SDS011;21899;42.662;23.316;2024-02-04T09:45:49;3.67;;;1.73;;
35777;SDS011;21899;42.662;23.316;2024-02-04T09:48:16;4.35;;;1.33;;
35777;SDS011;21899;42.662;23.316;2024-02-04T09:50:45;2.10;;;1.20;;
35777;SDS011;21899;42.662;23.316;2024-02-04T09:53:11;2.45;;;1.13;;
35777;SDS011;21899;42.662;23.316;2024-02-04T09:55:39;4.20;;;1.52;;
35777;SDS011;21899;42.662;23.316;2024-02-04T09:58:06;3.22;;;1.20;;
35777;SDS011;21899;42.662;23.316;2024-02-04T10:00:32;2.53;;;1.38;;
35777;SDS011;21899;42.662;23.316;2024-02-04T10:02:58;1.98;;;1.33;;
35777;SDS011;21899;42.662;23.316;2024-02-04T10:05:26;4.00;;;2.08;;
35777;SDS011;21899;42.662;23.316;2024-02-04T10:07:51;4.43;;;1.73;;
35777;SDS011;21899;42.662;23.316;2024-02-04T10:10:17;3.33;;;1.50;;
35777;SDS011;21899;42.662;23.316;2024-02-04T10:12:42;2.25;;;1.30;;
35777;SDS011;21899;42.662;23.316;2024-02-04T10:15:09;4.20;;;1.33;;
35777;SDS011;21899;42.662;23.316;2024-02-04T10:17:35;1.92;;;1.00;;
35777;SDS011;21899;42.662;23.316;2024-02-04T10:20:01;2.03;;;1.02;;
35777;SDS011;21899;42.662;23.316;2024-02-04T10:22:27;2.83;;;1.30;;
35777;SDS011;21899;42.662;23.316;2024-02-04T10:24:54;4.28;;;0.85;;
35777;SDS011;21899;42.662;23.316;2024-02-04T10:27:29;1.20;;;0.90;;
35777;SDS011;21899;42.662;23.316;2024-02-04T10:29:56;2.05;;;1.10;;
35777;SDS011;21899;42.662;23.316;2024-02-04T10:32:22;1.65;;;0.90;;
35777;SDS011;21899;42.662;23.316;2024-02-04T10:34:48;5.05;;;1.42;;
35777;SDS011;21899;42.662;23.316;2024-02-04T10:37:13;4.57;;;1.75;;
35777;SDS011;21899;42.662;23.316;2024-02-04T10:39:38;2.17;;;1.02;;
35777;SDS011;21899;42.662;23.316;2024-02-04T10:42:04;2.05;;;1.15;;
35777;SDS011;21899;42.662;23.316;2024-02-04T10:44:34;2.88;;;0.90;;
35777;SDS011;21899;42.662;23.316;2024-02-04T10:47:07;2.95;;;1.15;;
35777;SDS011;21899;42.662;23.316;2024-02-04T10:49:40;3.55;;;1.42;;
35777;SDS011;21899;42.662;23.316;2024-02-04T10:52:15;2.38;;;1.45;;
35777;SDS011;21899;42.662;23.316;2024-02-04T10:54:42;1.95;;;1.10;;
35777;SDS011;21899;42.662;23.316;2024-02-04T10:57:12;2.35;;;1.60;;
35777;SDS011;21899;42.662;23.316;2024-02-04T10:59:39;5.25;;;1.23;;
35777;SDS011;21899;42.662;23.316;2024-02-04T11:02:05;2.63;;;0.73;;
35777;SDS011;21899;42.662;23.316;2024-02-04T11:04:31;2.55;;;1.00;;
35777;SDS011;21899;42.662;23.316;2024-02-04T11:06:58;4.60;;;0.98;;
35777;SDS011;21899;42.662;23.316;2024-02-04T11:09:26;1.70;;;1.10;;
35777;SDS011;21899;42.662;23.316;2024-02-04T11:11:52;2.60;;;1.30;;
35777;SDS011;21899;42.662;23.316;2024-02-04T11:14:20;1.92;;;0.75;;
35777;SDS011;21899;42.662;23.316;2024-02-04T11:16:52;3.42;;;0.90;;
35777;SDS011;21899;42.662;23.316;2024-02-04T11:19:47;1.55;;;1.00;;
35777;SDS011;21899;42.662;23.316;2024-02-04T11:23:22;1.95;;;1.17;;
35777;SDS011;21899;42.662;23.316;2024-02-04T11:28:11;2.03;;;0.95;;
35777;SDS011;21899;42.662;23.316;2024-02-04T11:30:37;1.70;;;0.95;;
35777;SDS011;21899;42.662;23.316;2024-02-04T11:33:04;2.00;;;1.13;;
35777;SDS011;21899;42.662;23.316;2024-02-04T11:35:33;1.17;;;0.88;;
35777;SDS011;21899;42.662;23.316;2024-02-04T11:38:00;2.15;;;1.92;;
35777;SDS011;21899;42.662;23.316;2024-02-04T11:40:35;1.92;;;0.70;;
35777;SDS011;21899;42.662;23.316;2024-02-04T11:45:43;1.40;;;1.00;;
35777;SDS011;21899;42.662;23.316;2024-02-04T11:48:10;2.40;;;1.45;;
35777;SDS011;21899;42.662;23.316;2024-02-04T11:50:39;0.88;;;0.63;;
35777;SDS011;21899;42.662;23.316;2024-02-04T11:53:11;1.42;;;0.85;;
35777;SDS011;21899;42.662;23.316;2024-02-04T11:55:41;2.33;;;0.95;;
35777;SDS011;21899;42.662;23.316;2024-02-04T11:58:07;1.60;;;1.02;;
35777;SDS011;21899;42.662;23.316;2024-02-04T12:00:34;2.88;;;0.80;;
35777;SDS011;21899;42.662;23.316;2024-02-04T12:03:07;0.70;;;0.70;;
35777;SDS011;21899;42.662;23.316;2024-02-04T12:05:33;1.48;;;1.08;;
35777;SDS011;21899;42.662;23.316;2024-02-04T12:08:01;1.60;;;1.00;;
35777;SDS011;21899;42.662;23.316;2024-02-04T12:10:31;1.23;;;0.85;;
35777;SDS011;21899;42.662;23.316;2024-02-04T12:13:06;1.17;;;0.80;;
35777;SDS011;21899;42.662;23.316;2024-02-04T12:15:35;3.15;;;1.67;;
35777;SDS011;21899;42.662;23.316;2024-02-04T12:18:10;2.47;;;1.02;;
35777;SDS011;21899;42.662;23.316;2024-02-04T12:20:39;1.17;;;0.80;;
35777;SDS011;21899;42.662;23.316;2024-02-04T12:23:05;2.42;;;1.00;;
35777;SDS011;21899;42.662;23.316;2024-02-04T12:25:34;1.20;;;0.90;;
35777;SDS011;21899;42.662;23.316;2024-02-04T12:28:00;2.08;;;1.25;;
35777;SDS011;21899;42.662;23.316;2024-02-04T12:30:30;1.27;;;0.98;;
35777;SDS011;21899;42.662;23.316;2024-02-04T12:33:01;2.05;;;1.27;;
35777;SDS011;21899;42.662;23.316;2024-02-04T12:35:29;1.75;;;1.10;;
35777;SDS011;21899;42.662;23.316;2024-02-04T12:37:56;3.22;;;1.08;;
35777;SDS011;21899;42.662;23.316;2024-02-04T12:42:53;2.53;;;1.48;;
35777;SDS011;21899;42.662;23.316;2024-02-04T12:45:22;2.58;;;1.55;;
35777;SDS011;21899;42.662;23.316;2024-02-04T12:47:52;1.73;;;1.13;;
35777;SDS011;21899;42.662;23.316;2024-02-04T12:50:19;4.30;;;1.42;;
35777;SDS011;21899;42.662;23.316;2024-02-04T12:52:46;1.45;;;1.15;;
35777;SDS011;21899;42.662;23.316;2024-02-04T12:55:27;4.70;;;1.20;;
35777;SDS011;21899;42.662;23.316;2024-02-04T12:58:07;2.15;;;1.02;;
35777;SDS011;21899;42.662;23.316;2024-02-04T13:00:37;2.15;;;1.42;;
35777;SDS011;21899;42.662;23.316;2024-02-04T13:03:04;2.42;;;1.63;;
35777;SDS011;21899;42.662;23.316;2024-02-04T13:05:30;1.40;;;0.93;;
35777;SDS011;21899;42.662;23.316;2024-02-04T13:07:57;1.80;;;1.13;;
35777;SDS011;21899;42.662;23.316;2024-02-04T13:10:27;1.33;;;1.23;;
35777;SDS011;21899;42.662;23.316;2024-02-04T13:15:33;2.65;;;1.00;;
35777;SDS011;21899;42.662;23.316;2024-02-04T13:18:02;1.88;;;1.17;;
35777;SDS011;21899;42.662;23.316;2024-02-04T13:20:28;1.92;;;1.40;;
35777;SDS011;21899;42.662;23.316;2024-02-04T13:22:54;2.65;;;1.20;;
35777;SDS011;21899;42.662;23.316;2024-02-04T13:25:20;2.70;;;1.40;;
35777;SDS011;21899;42.662;23.316;2024-02-04T13:27:47;2.47;;;1.30;;
35777;SDS011;21899;42.662;23.316;2024-02-04T13:30:13;5.47;;;1.70;;
35777;SDS011;21899;42.662;23.316;2024-02-04T13:32:39;1.13;;;1.02;;
35777;SDS011;21899;42.662;23.316;2024-02-04T13:35:06;2.67;;;1.10;;
35777;SDS011;21899;42.662;23.316;2024-02-04T13:37:34;2.90;;;1.38;;
35777;SDS011;21899;42.662;23.316;2024-02-04T13:40:07;1.75;;;1.38;;
35777;SDS011;21899;42.662;23.316;2024-02-04T13:42:34;1.63;;;1.38;;
35777;SDS011;21899;42.662;23.316;2024-02-04T13:45:00;2.20;;;1.20;;
35777;SDS011;21899;42.662;23.316;2024-02-04T13:47:27;3.42;;;1.67;;
35777;SDS011;21899;42.662;23.316;2024-02-04T13:49:53;1.60;;;1.10;;
35777;SDS011;21899;42.662;23.316;2024-02-04T13:52:19;1.88;;;1.33;;
35777;SDS011;21899;42.662;23.316;2024-02-04T13:54:45;2.60;;;1.08;;
35777;SDS011;21899;42.662;23.316;2024-02-04T13:57:11;2.17;;;1.50;;
35777;SDS011;21899;42.662;23.316;2024-02-04T13:59:36;2.90;;;1.48;;
35777;SDS011;21899;42.662;23.316;2024-02-04T14:02:02;2.63;;;1.45;;
35777;SDS011;21899;42.662;23.316;2024-02-04T14:04:29;1.10;;;1.00;;
35777;SDS011;21899;42.662;23.316;2024-02-04T14:06:55;1.90;;;1.33;;
35777;SDS011;21899;42.662;23.316;2024-02-04T14:09:20;3.22;;;1.85;;
35777;SDS011;21899;42.662;23.316;2024-02-04T14:11:46;5.10;;;1.58;;
35777;SDS011;21899;42.662;23.316;2024-02-04T14:14:12;5.10;;;1.55;;
35777;SDS011;21899;42.662;23.316;2024-02-04T14:16:37;4.25;;;1.73;;
35777;SDS011;21899;42.662;23.316;2024-02-04T14:19:04;3.65;;;1.13;;
35777;SDS011;21899;42.662;23.316;2024-02-04T14:21:29;5.03;;;1.58;;
35777;SDS011;21899;42.662;23.316;2024-02-04T14:23:55;2.17;;;1.58;;
35777;SDS011;21899;42.662;23.316;2024-02-04T14:26:21;1.77;;;1.30;;
35777;SDS011;21899;42.662;23.316;2024-02-04T14:28:46;1.50;;;1.05;;
35777;SDS011;21899;42.662;23.316;2024-02-04T14:31:12;2.90;;;1.23;;
35777;SDS011;21899;42.662;23.316;2024-02-04T14:33:37;2.55;;;1.10;;
35777;SDS011;21899;42.662;23.316;2024-02-04T14:36:03;2.35;;;1.58;;
35777;SDS011;21899;42.662;23.316;2024-02-04T14:38:29;2.20;;;1.30;;
35777;SDS011;21899;42.662;23.316;2024-02-04T14:40:58;2.67;;;1.20;;
35777;SDS011;21899;42.662;23.316;2024-02-04T14:43:27;2.92;;;1.70;;
35777;SDS011;21899;42.662;23.316;2024-02-04T14:45:52;2.38;;;1.45;;
35777;SDS011;21899;42.662;23.316;2024-02-04T14:48:18;3.60;;;1.40;;